This is the latest recevied weather packets stored in our database for station/object AD6NH. If no packets are shown the sender has not sent any weather packets the latest 1 day(s).
| Time | Temp. | Humidity | Pressure | Rain* | Wind** | Luminosity | Snow |
|---|---|---|---|---|---|---|---|
| 1778012222 | 20° C | 48% | 1015.6 hPa | 0 mm | 2.24 m/s, 266° | - | - |
| 1778011622 | 21.11° C | 46% | 1015.8 hPa | 0 mm | 2.68 m/s, 159° | - | - |
| 1778011022 | 21.11° C | 46% | 1015.8 hPa | 0 mm | 2.68 m/s, 183° | - | - |
| 1778010422 | 20.56° C | 47% | 1015.7 hPa | 0 mm | 1.34 m/s, 175° | - | - |
| 1778009822 | 19.44° C | 50% | 1016 hPa | 0 mm | 2.24 m/s, 181° | - | - |
| 1778009222 | 18.89° C | 52% | 1016 hPa | 0 mm | 1.34 m/s, 169° | - | - |
| 1778008622 | 18.89° C | 51% | 1016 hPa | 0 mm | 2.68 m/s, 203° | - | - |
| 1778008022 | 18.89° C | 57% | 1016 hPa | 0 mm | 2.68 m/s, 235° | - | - |
| 1778007422 | 18.89° C | 56% | 1016.1 hPa | 0 mm | 2.68 m/s, 229° | - | - |
| 1778006822 | 18.89° C | 55% | 1016 hPa | 0 mm | 2.68 m/s, 206° | - | - |
| 1778006222 | 18.89° C | 55% | 1016 hPa | 0 mm | 2.24 m/s, 257° | - | - |
| 1778005622 | 18.89° C | 53% | 1015.9 hPa | 0 mm | 2.68 m/s, 187° | - | - |
| 1778005022 | 18.89° C | 54% | 1015.9 hPa | 0 mm | 2.68 m/s, 232° | - | - |
| 1778004422 | 20.56° C | 52% | 1015.7 hPa | 0 mm | 2.24 m/s, 221° | - | - |
| 1778003822 | 18.89° C | 57% | 1015.6 hPa | 0 mm | 0.89 m/s, 202° | - | - |
| 1778003222 | 18.89° C | 57% | 1015.6 hPa | 0 mm | 1.79 m/s, 179° | - | - |
| 1778002622 | 18.33° C | 59% | 1015.5 hPa | 0 mm | 1.79 m/s, 238° | - | - |
| 1778002022 | 18.89° C | 56% | 1015.5 hPa | 0 mm | 2.68 m/s, 231° | - | - |
| 1778001422 | 18.89° C | 56% | 1015.4 hPa | 0 mm | 1.79 m/s, 272° | - | - |
| 1778000822 | 19.44° C | 57% | 1015.3 hPa | 0 mm | 0.89 m/s, 244° | - | - |
| 1778000228 | 18.33° C | 63% | 1015.3 hPa | 0 mm | 1.79 m/s, 222° | - | - |
| 1777999622 | 18.33° C | 61% | 1015.2 hPa | 0 mm | 0.45 m/s, 277° | - | - |
| 1777999022 | 17.78° C | 62% | 1015.1 hPa | 0 mm | 1.79 m/s, 230° | - | - |
| 1777998422 | 18.33° C | 64% | 1015 hPa | 0 mm | 1.34 m/s, 244° | - | - |
| 1777997822 | 17.78° C | 62% | 1015 hPa | 0 mm | 0.89 m/s, 237° | - | - |
* Rain latest hour (hover to see other rain measurements)
** Current wind speed in m/s (hover to see current wind gust speed)